Terminal Aerodrome Forecast
Issued by NWS Pendleton, OR

Home | Current Version | Previous Version | Text Only | Print | Product List | Glossary On
Versions: 1 2 3 4 5 6 7 8 9 10 11 12 13 14 15 16 17 18 19 20 21 22 23 24 25 26 27
575
FTUS46 KPDT 190539
TAFPDT
TAF
KPDT 190539Z 1906/2006 16012G24KT P6SM BKN050 OVC080
     FM191000 16011KT P6SM OVC040
     FM191800 18008KT P6SM BKN060=

USA.gov is the U.S. government's official web portal to all federal, state and local government web resources and services.